Time;durP1;ratioP1;P1;durP2;ratioP2;P2;SDS_P1;SDS_P2;PMS_P1;PMS_P2;Temp;Humidity;BMP_temperature;BMP_pressure;BME280_temperature;BME280_humidity;BME280_pressure;Samples;Min_cycle;Max_cycle;Signal;HPM_P1;HPM_P2
2023/10/04 00:00:15;;;;;;;0.20;0.20;;;;;;;12.91;95.00;99535.41;5087873;28;20103;-61
2023/10/04 00:03:01;;;;;;;0.20;0.20;;;;;;;12.92;94.26;99547.53;5087570;28;20051;-61
2023/10/04 00:05:26;;;;;;;0.20;0.20;;;;;;;12.85;94.70;99547.72;5086973;28;20123;-61
2023/10/04 00:07:55;;;;;;;0.25;0.25;;;;;;;12.88;94.17;99545.00;5087229;28;20029;-62
2023/10/04 00:10:24;;;;;;;0.30;0.30;;;;;;;12.85;95.13;99545.13;5069037;28;20036;-62
2023/10/04 00:12:50;;;;;;;0.30;0.30;;;;;;;12.94;95.13;99541.34;5087378;28;20020;-61
2023/10/04 00:15:20;;;;;;;0.20;0.20;;;;;;;13.01;95.50;99547.22;5087237;28;20054;-61
2023/10/04 00:17:46;;;;;;;0.30;0.30;;;;;;;13.00;95.79;99546.34;5087167;28;20039;-62
2023/10/04 00:20:14;;;;;;;0.30;0.30;;;;;;;13.02;95.86;99543.69;5087527;28;20074;-61
2023/10/04 00:22:40;;;;;;;0.30;0.30;;;;;;;13.01;95.05;99542.88;5087196;28;20080;-61
2023/10/04 00:25:29;;;;;;;0.30;0.30;;;;;;;13.02;94.62;99549.78;5087058;28;20029;-61
2023/10/04 00:27:56;;;;;;;0.22;0.22;;;;;;;13.12;94.65;99529.47;5087066;28;20420;-61
2023/10/04 00:30:22;;;;;;;0.30;0.30;;;;;;;13.14;95.15;99552.88;5085564;28;20037;-61
2023/10/04 00:32:48;;;;;;;0.30;0.30;;;;;;;13.11;94.57;99551.25;5087164;28;20485;-62
2023/10/04 00:35:17;;;;;;;0.30;0.30;;;;;;;13.12;94.35;99547.72;5086913;28;20029;-61
2023/10/04 00:37:47;;;;;;;1.30;1.25;;;;;;;13.12;94.02;99560.75;5087067;28;20031;-61
2023/10/04 00:40:19;;;;;;;0.30;0.30;;;;;;;13.16;93.66;99555.44;5086418;28;20492;-62
2023/10/04 00:42:47;;;;;;;;;;;;;;;13.18;90.46;99538.00;5087393;28;20024;-60
2023/10/04 00:45:13;;;;;;;0.63;0.63;;;;;;;13.18;92.11;99553.66;5086877;28;19930;-61
2023/10/04 00:47:47;;;;;;;4.32;0.88;;;;;;;13.12;90.27;99552.06;5086303;28;20030;-61
2023/10/04 00:50:20;;;;;;;0.30;0.30;;;;;;;13.17;90.37;99558.00;5086644;28;20033;-60
2023/10/04 00:53:10;;;;;;;0.30;0.30;;;;;;;13.12;89.67;99568.56;5086711;28;20078;-61
2023/10/04 00:55:42;;;;;;;0.30;0.30;;;;;;;13.17;90.02;99562.34;5086142;28;20052;-62
2023/10/04 00:58:08;;;;;;;0.82;0.82;;;;;;;13.11;90.47;99561.66;5086586;28;20054;-61
2023/10/04 01:00:54;;;;;;;0.30;0.30;;;;;;;13.06;90.13;99568.78;5086590;28;20125;-62
2023/10/04 01:03:24;;;;;;;0.30;0.30;;;;;;;13.05;90.47;99558.41;5086556;28;20088;-61
2023/10/04 01:05:51;;;;;;;0.30;0.30;;;;;;;13.03;89.42;99566.28;5086509;28;20028;-61
2023/10/04 01:08:22;;;;;;;0.30;0.30;;;;;;;13.05;91.03;99561.84;5086345;28;20025;-61
2023/10/04 01:10:49;;;;;;;0.33;0.33;;;;;;;13.06;90.62;99560.97;5086039;28;20024;-61
2023/10/04 01:13:19;;;;;;;0.20;0.20;;;;;;;13.06;90.55;99560.97;5086108;28;20282;-61
2023/10/04 01:15:44;;;;;;;0.30;0.30;;;;;;;13.08;91.48;99564.34;5085880;28;20028;-62
2023/10/04 01:18:16;;;;;;;1.88;1.23;;;;;;;13.02;90.43;99567.16;5086148;28;20101;-63
2023/10/04 01:20:42;;;;;;;;;;;;;;;12.97;87.93;99571.69;5068577;28;20016;-64
2023/10/04 01:23:10;;;;;;;4.30;0.88;;;;;;;12.75;89.64;99567.13;5085871;28;19943;-63
2023/10/04 01:25:41;;;;;;;4.45;1.10;;;;;;;12.63;90.92;99565.75;5067511;28;20024;-64
2023/10/04 01:28:16;;;;;;;5.15;1.38;;;;;;;12.47;91.45;99567.97;5086047;28;20055;-63
2023/10/04 01:30:44;;;;;;;4.45;1.25;;;;;;;12.34;91.57;99570.09;5085860;28;20020;-61
2023/10/04 01:33:15;;;;;;;7.80;1.17;;;;;;;12.24;92.46;99574.69;5085806;28;20070;-61
2023/10/04 01:35:41;;;;;;;2.63;1.23;;;;;;;12.19;92.64;99574.84;5085658;28;20051;-62
2023/10/04 01:38:06;;;;;;;4.63;0.68;;;;;;;12.16;93.43;99574.09;5085748;28;20020;-60
2023/10/04 01:40:32;;;;;;;3.60;0.85;;;;;;;12.15;93.75;99581.03;5067797;28;20032;-61
2023/10/04 01:42:59;;;;;;;2.55;0.93;;;;;;;12.18;93.90;99572.28;5086028;28;20020;-61
2023/10/04 01:45:25;;;;;;;5.45;1.48;;;;;;;12.17;93.20;99578.38;5085367;28;20025;-61
2023/10/04 01:47:51;;;;;;;8.02;2.95;;;;;;;12.16;93.47;99580.13;5085658;28;20052;-62
2023/10/04 01:50:17;;;;;;;2.47;1.73;;;;;;;12.16;94.21;99582.72;5085614;28;20024;-60
2023/10/04 01:52:48;;;;;;;3.38;1.75;;;;;;;12.20;94.17;99578.28;5085491;28;20454;-61
2023/10/04 01:55:16;;;;;;;5.53;0.90;;;;;;;12.27;93.91;99590.22;5085012;28;20115;-61
2023/10/04 01:57:43;;;;;;;1.85;1.48;;;;;;;12.30;94.45;99590.13;5085358;28;20092;-62
2023/10/04 02:00:10;;;;;;;3.30;1.13;;;;;;;12.25;93.86;99598.06;5085462;28;20103;-64
2023/10/04 02:02:39;;;;;;;10.10;1.40;;;;;;;12.08;92.91;99598.56;5084968;28;20044;-66
2023/10/04 02:05:09;;;;;;;4.47;1.25;;;;;;;11.87;93.52;99594.75;5085057;28;20031;-65
2023/10/04 02:07:38;;;;;;;2.70;1.48;;;;;;;11.73;93.98;99600.31;5085473;28;20104;-66
2023/10/04 02:10:11;;;;;;;2.70;0.68;;;;;;;11.65;95.38;99609.19;5085071;28;20024;-66
2023/10/04 02:12:37;;;;;;;4.00;1.42;;;;;;;11.64;96.22;99604.03;5085356;28;20017;-66
2023/10/04 02:15:03;;;;;;;5.20;1.10;;;;;;;11.60;96.50;99591.97;5085031;28;20487;-64
2023/10/04 02:17:31;;;;;;;5.78;1.10;;;;;;;11.62;97.20;99598.88;5085213;28;20099;-66
2023/10/04 02:19:57;;;;;;;6.22;1.55;;;;;;;11.57;97.19;99582.53;5085275;28;20021;-65
2023/10/04 02:22:23;;;;;;;3.80;0.82;;;;;;;11.66;97.96;99586.66;5085301;28;20051;-65
2023/10/04 02:24:48;;;;;;;1.60;0.90;;;;;;;11.64;98.63;99583.22;5084823;28;20029;-64
2023/10/04 02:27:17;;;;;;;2.45;0.73;;;;;;;11.71;99.02;99586.53;5085026;28;20047;-63
2023/10/04 02:29:44;;;;;;;5.57;1.08;;;;;;;11.67;99.04;99597.88;5084787;28;20039;-63
2023/10/04 02:32:10;;;;;;;4.68;1.35;;;;;;;11.63;99.12;99604.91;5084795;28;20088;-63
2023/10/04 02:34:36;;;;;;;0.68;0.63;;;;;;;11.63;98.88;99608.38;5084878;28;20024;-63
2023/10/04 02:37:06;;;;;;;1.60;1.23;;;;;;;11.57;99.28;99616.31;5084414;28;20479;-63
2023/10/04 02:39:32;;;;;;;1.38;0.65;;;;;;;11.60;99.63;99613.66;5084460;28;20070;-62
2023/10/04 02:41:59;;;;;;;1.73;0.88;;;;;;;11.64;100.00;99617.91;5085025;28;20020;-62
2023/10/04 02:44:25;;;;;;;1.92;1.30;;;;;;;11.69;100.00;99612.56;5084799;28;20028;-63
2023/10/04 02:46:52;;;;;;;2.88;2.63;;;;;;;11.75;100.00;99621.94;5084860;28;20021;-62
2023/10/04 02:49:17;;;;;;;7.22;2.38;;;;;;;11.78;100.00;99619.25;5084750;28;20037;-62
2023/10/04 02:51:45;;;;;;;4.65;1.35;;;;;;;11.89;100.00;99601.63;5084856;28;20025;-62
2023/10/04 02:54:11;;;;;;;5.53;1.42;;;;;;;11.90;100.00;99616.34;5084561;28;20024;-61
2023/10/04 02:56:42;;;;;;;10.48;1.95;;;;;;;11.96;100.00;99617.94;5084444;28;20064;-61
2023/10/04 02:59:07;;;;;;;17.83;2.47;;;;;;;11.96;100.00;99606.66;5084967;28;20048;-61
2023/10/04 03:01:32;;;;;;;1.63;0.57;;;;;;;12.07;99.73;99601.16;5084689;28;20032;-60
2023/10/04 03:03:58;;;;;;;1.13;0.93;;;;;;;12.09;100.00;99599.41;5084601;28;20020;-61
2023/10/04 03:06:24;;;;;;;5.78;0.95;;;;;;;12.12;99.50;99604.53;5084405;28;20028;-60
2023/10/04 03:08:55;;;;;;;7.30;0.90;;;;;;;12.15;99.28;99607.06;5084467;28;20024;-61
2023/10/04 03:11:21;;;;;;;0.65;0.65;;;;;;;12.11;99.13;99598.47;5084588;28;20080;-61
2023/10/04 03:13:47;;;;;;;6.78;1.40;;;;;;;12.06;98.15;99594.28;5066531;28;20082;-61
2023/10/04 03:16:12;;;;;;;4.22;0.70;;;;;;;12.23;97.70;99610.31;5087471;28;20103;-61
2023/10/04 03:18:39;;;;;;;8.18;1.92;;;;;;;12.23;97.43;99606.84;5088456;28;20025;-61
2023/10/04 03:23:34;;;;;;;1.35;0.68;;;;;;;12.30;97.85;99604.91;5088378;28;20097;-61
2023/10/04 03:26:02;;;;;;;12.40;2.53;;;;;;;12.34;97.02;99615.19;5088028;28;20396;-61
2023/10/04 03:28:32;;;;;;;2.80;1.38;;;;;;;12.36;96.66;99613.38;5087998;28;20017;-61
2023/10/04 03:31:04;;;;;;;2.10;0.77;;;;;;;12.42;96.53;99627.13;5088126;28;20020;-61
2023/10/04 03:33:32;;;;;;;3.07;1.40;;;;;;;12.44;95.77;99625.34;5088324;28;20173;-62
2023/10/04 03:35:59;;;;;;;3.13;0.95;;;;;;;12.46;96.79;99623.56;5087968;28;20055;-62
2023/10/04 03:38:33;;;;;;;2.15;1.00;;;;;;;12.39;95.35;99613.31;5088038;28;20027;-61
2023/10/04 03:40:58;;;;;;;11.48;1.05;;;;;;;12.52;94.85;99623.38;5088003;28;20079;-62
2023/10/04 03:43:24;;;;;;;3.05;0.98;;;;;;;12.50;94.77;99612.13;5087944;28;20436;-61
2023/10/04 03:45:50;;;;;;;3.20;0.90;;;;;;;12.50;94.04;99618.22;5069808;28;20063;-61
2023/10/04 03:48:16;;;;;;;6.35;1.25;;;;;;;12.50;94.05;99606.94;5087957;28;20029;-61
2023/10/04 03:50:59;;;;;;;4.20;1.25;;;;;;;12.49;94.09;99610.44;5087621;28;20491;-61
2023/10/04 03:53:24;;;;;;;1.63;0.93;;;;;;;12.45;93.63;99622.69;5087777;28;20028;-61
2023/10/04 03:55:50;;;;;;;4.50;0.57;;;;;;;12.45;93.94;99616.63;5087141;28;20086;-61
2023/10/04 03:58:16;;;;;;;2.97;1.15;;;;;;;12.46;93.22;99613.97;5087638;28;20017;-63
2023/10/04 04:00:42;;;;;;;7.13;1.23;;;;;;;12.45;93.95;99617.47;5087497;28;20029;-61
2023/10/04 04:03:08;;;;;;;24.65;1.83;;;;;;;12.46;93.85;99632.19;5087632;28;20047;-63
2023/10/04 04:05:38;;;;;;;4.65;1.52;;;;;;;12.49;93.95;99629.50;5087407;28;20028;-66
2023/10/04 04:08:04;;;;;;;9.02;2.35;;;;;;;12.48;95.23;99626.94;5087406;28;20048;-60
2023/10/04 04:10:31;;;;;;;6.93;2.10;;;;;;;12.59;94.42;99626.63;5087289;28;20032;-60
2023/10/04 04:12:57;;;;;;;4.88;1.55;;;;;;;12.54;94.42;99631.97;5087342;28;20440;-61
2023/10/04 04:15:23;;;;;;;4.45;1.23;;;;;;;12.65;94.20;99629.06;5087320;28;20034;-60
2023/10/04 04:17:49;;;;;;;1.73;0.70;;;;;;;12.73;94.14;99632.28;5087199;28;20025;-60
2023/10/04 04:20:14;;;;;;;6.10;1.48;;;;;;;12.69;94.03;99633.28;5087339;28;20028;-61
2023/10/04 04:22:50;;;;;;;3.53;1.13;;;;;;;12.72;94.22;99655.75;5087269;28;20103;-62
2023/10/04 04:25:20;;;;;;;5.45;1.42;;;;;;;12.73;94.86;99662.69;5086613;28;20476;-60
2023/10/04 04:27:50;;;;;;;3.50;1.00;;;;;;;12.73;95.34;99654.88;5087203;28;20032;-61
2023/10/04 04:30:19;;;;;;;4.65;1.40;;;;;;;12.72;95.19;99647.94;5087316;28;20048;-63
2023/10/04 04:32:47;;;;;;;2.97;1.23;;;;;;;12.70;95.29;99645.41;5087007;28;20473;-65
2023/10/04 04:35:16;;;;;;;1.13;0.60;;;;;;;12.63;94.71;99634.34;5086600;28;20032;-62
2023/10/04 04:37:42;;;;;;;2.95;0.95;;;;;;;12.64;95.00;99649.03;5086855;28;20024;-62
2023/10/04 04:40:09;;;;;;;0.80;0.80;;;;;;;12.69;92.79;99624.59;5086332;28;20044;-61
2023/10/04 04:42:39;;;;;;;2.20;1.02;;;;;;;12.62;92.26;99650.84;5086810;28;20025;-61
2023/10/04 04:45:06;;;;;;;16.48;1.65;;;;;;;12.59;92.73;99648.31;5086968;28;20035;-62
2023/10/04 04:47:31;;;;;;;1.83;1.42;;;;;;;12.54;91.29;99620.72;5086526;28;20088;-62
2023/10/04 04:49:57;;;;;;;1.45;0.82;;;;;;;12.54;89.65;99642.38;5086647;28;20020;-61
2023/10/04 04:52:22;;;;;;;0.77;0.77;;;;;;;12.52;89.45;99654.63;5086565;28;20025;-61
2023/10/04 04:54:47;;;;;;;1.38;0.68;;;;;;;12.57;88.11;99647.50;5086308;28;20040;-62
2023/10/04 04:57:13;;;;;;;4.80;1.33;;;;;;;12.56;88.08;99656.22;5086589;28;20021;-61
2023/10/04 04:59:39;;;;;;;3.35;1.95;;;;;;;12.62;88.60;99661.25;5086633;28;20024;-61
2023/10/04 05:02:05;;;;;;;5.18;1.05;;;;;;;12.57;88.07;99660.53;5086403;28;20020;-61
2023/10/04 05:04:30;;;;;;;17.65;2.65;;;;;;;12.61;88.44;99650.88;5086366;28;20024;-62
2023/10/04 05:06:56;;;;;;;1.83;0.93;;;;;;;12.60;88.46;99637.00;5086351;28;20488;-62
2023/10/04 05:09:21;;;;;;;9.05;2.40;;;;;;;12.63;88.05;99657.78;5086022;28;20021;-62
2023/10/04 05:11:46;;;;;;;13.30;1.33;;;;;;;12.62;87.18;99653.44;5086402;28;20036;-62
2023/10/04 05:14:12;;;;;;;0.85;0.63;;;;;;;12.67;87.53;99649.88;5086162;28;20024;-62
2023/10/04 05:16:38;;;;;;;4.75;1.52;;;;;;;12.68;87.61;99670.66;5086216;28;20024;-62
2023/10/04 05:19:04;;;;;;;4.22;1.50;;;;;;;12.75;87.74;99666.97;5086395;28;20024;-62
2023/10/04 05:21:30;;;;;;;2.42;0.95;;;;;;;12.71;86.85;99680.13;5086252;28;20031;-62
2023/10/04 05:23:56;;;;;;;2.08;1.23;;;;;;;12.73;86.94;99660.94;5085421;28;20016;-66
2023/10/04 05:26:21;;;;;;;0.85;0.70;;;;;;;12.81;87.34;99662.47;5085778;28;20020;-63
2023/10/04 05:28:47;;;;;;;1.67;0.95;;;;;;;12.75;87.09;99638.31;5086087;28;20222;-63
2023/10/04 05:31:12;;;;;;;6.55;2.33;;;;;;;12.77;85.89;99665.16;5085880;28;20040;-63
2023/10/04 05:33:37;;;;;;;4.85;1.50;;;;;;;12.72;85.07;99676.59;5085875;28;20051;-62
2023/10/04 05:36:03;;;;;;;0.85;0.63;;;;;;;12.71;82.66;99675.78;5085952;28;20035;-62
2023/10/04 05:38:29;;;;;;;2.97;1.05;;;;;;;12.71;83.70;99674.91;5084944;28;20029;-62
2023/10/04 05:40:55;;;;;;;2.13;0.98;;;;;;;12.73;84.22;99684.38;5085730;28;20032;-62
2023/10/04 05:43:20;;;;;;;2.15;1.08;;;;;;;12.74;84.08;99682.63;5085957;28;20037;-63
2023/10/04 05:45:47;;;;;;;13.00;2.15;;;;;;;12.73;83.68;99701.78;5085520;28;20016;-61
2023/10/04 05:48:23;;;;;;;17.75;2.03;;;;;;;12.75;84.46;99698.22;5085345;28;20052;-63
2023/10/04 05:50:54;;;;;;;1.30;0.85;;;;;;;12.77;82.88;99705.97;5085240;28;20025;-62
2023/10/04 05:53:19;;;;;;;14.93;1.83;;;;;;;12.80;82.68;99690.25;5085617;28;20038;-62
2023/10/04 05:55:45;;;;;;;1.85;1.30;;;;;;;12.85;82.42;99690.97;5085074;28;20053;-62
2023/10/04 05:58:11;;;;;;;3.35;1.95;;;;;;;12.90;82.16;99690.84;5085685;28;20020;-62
2023/10/04 06:00:46;;;;;;;3.78;1.13;;;;;;;12.87;81.18;99722.19;5085513;28;20084;-63
2023/10/04 06:03:12;;;;;;;3.25;0.95;;;;;;;12.94;81.78;99710.69;5085446;28;20461;-63
2023/10/04 06:05:40;;;;;;;2.05;1.02;;;;;;;12.96;80.15;99719.31;5085332;28;20028;-62
2023/10/04 06:08:10;;;;;;;3.83;1.23;;;;;;;13.01;80.39;99725.25;5085117;28;20401;-62
2023/10/04 06:10:36;;;;;;;0.38;0.38;;;;;;;13.02;79.54;99713.06;5085327;28;20368;-63
2023/10/04 06:13:02;;;;;;;1.15;0.85;;;;;;;12.99;79.17;99721.84;5085505;28;20024;-63
2023/10/04 06:15:30;;;;;;;0.85;0.63;;;;;;;13.07;79.57;99744.19;5085294;28;20024;-62
2023/10/04 06:17:56;;;;;;;3.45;1.30;;;;;;;13.18;79.53;99723.06;5085382;28;20017;-62
2023/10/04 06:20:28;;;;;;;6.22;3.05;;;;;;;13.53;78.83;99705.47;5084777;28;20030;-62
2023/10/04 06:22:59;;;;;;;3.97;1.02;;;;;;;13.75;78.84;99726.47;5067319;28;20016;-63
2023/10/04 06:25:26;;;;;;;7.10;1.30;;;;;;;13.74;78.04;99750.00;5084959;28;20069;-63
2023/10/04 06:27:54;;;;;;;4.85;1.75;;;;;;;13.63;79.24;99742.53;5085304;28;20055;-62
2023/10/04 06:30:21;;;;;;;3.55;1.30;;;;;;;13.57;79.27;99761.00;5085105;28;20032;-62
2023/10/04 06:32:50;;;;;;;2.72;1.05;;;;;;;13.44;79.12;99763.09;5085211;28;20087;-63
2023/10/04 06:35:17;;;;;;;5.97;1.30;;;;;;;13.41;79.80;99765.78;5085146;28;20021;-62
2023/10/04 06:37:43;;;;;;;5.78;1.60;;;;;;;13.38;80.46;99765.00;5085226;28;20020;-63
2023/10/04 06:40:15;;;;;;;5.85;1.60;;;;;;;13.44;80.83;99781.34;5084670;28;20028;-62
2023/10/04 06:42:43;;;;;;;2.47;0.88;;;;;;;13.44;81.87;99777.00;5085121;28;20017;-62
2023/10/04 06:45:09;;;;;;;1.50;0.93;;;;;;;13.53;80.51;99764.59;5067048;28;20028;-63
2023/10/04 06:47:35;;;;;;;1.50;1.05;;;;;;;13.50;80.43;99768.09;5085027;28;20044;-64
2023/10/04 06:50:02;;;;;;;11.70;1.73;;;;;;;13.47;79.84;99795.16;5071463;28;20032;-63
2023/10/04 06:52:27;;;;;;;2.83;1.48;;;;;;;13.53;79.11;99788.06;5091552;28;20024;-63
2023/10/04 06:54:53;;;;;;;4.53;2.65;;;;;;;13.48;78.62;99783.81;5091451;28;20076;-63
2023/10/04 06:57:18;;;;;;;1.55;0.95;;;;;;;13.48;79.25;99796.84;5091597;28;20035;-63
2023/10/04 06:59:47;;;;;;;1.85;0.98;;;;;;;13.60;78.10;99813.91;5091637;28;20021;-63
2023/10/04 07:02:12;;;;;;;12.75;3.20;;;;;;;13.57;78.23;99811.41;5091699;28;20032;-63
2023/10/04 07:04:37;;;;;;;4.43;1.45;;;;;;;13.79;77.93;99809.88;5091531;28;20021;-63
2023/10/04 07:07:02;;;;;;;2.92;1.15;;;;;;;14.08;78.76;99816.78;5091480;28;20084;-62
2023/10/04 07:09:28;;;;;;;3.92;1.35;;;;;;;14.49;79.24;99792.78;5091235;28;20047;-62
2023/10/04 07:11:54;;;;;;;6.10;1.90;;;;;;;14.96;76.26;99819.06;5091486;28;20055;-63
2023/10/04 07:14:19;;;;;;;5.78;2.17;;;;;;;15.26;74.86;99811.00;5091131;28;20252;-63
2023/10/04 07:16:44;;;;;;;3.85;1.30;;;;;;;15.23;74.56;99827.66;5091362;28;20021;-63
2023/10/04 07:19:11;;;;;;;7.93;1.52;;;;;;;15.12;73.91;99819.38;5091369;28;20122;-63
2023/10/04 07:21:37;;;;;;;6.60;1.33;;;;;;;15.15;75.73;99836.69;5091503;28;20021;-64
2023/10/04 07:24:02;;;;;;;1.00;0.63;;;;;;;15.25;76.09;99822.38;5091194;28;20086;-63
2023/10/04 07:26:34;;;;;;;3.47;1.13;;;;;;;15.30;76.58;99828.31;5091068;28;20032;-64
2023/10/04 07:28:59;;;;;;;3.50;1.23;;;;;;;15.13;75.52;99844.59;5091526;28;20101;-64
2023/10/04 07:31:25;;;;;;;4.72;1.40;;;;;;;14.97;73.84;99849.53;5091619;28;20040;-63
2023/10/04 07:33:50;;;;;;;4.15;1.40;;;;;;;14.93;74.14;99843.56;5091352;28;20032;-63
2023/10/04 07:36:16;;;;;;;3.67;1.73;;;;;;;14.79;73.76;99851.88;5090842;28;20531;-63
2023/10/04 07:38:42;;;;;;;15.57;1.30;;;;;;;14.70;74.35;99839.09;5091252;28;20158;-63
2023/10/04 07:41:07;;;;;;;6.25;1.23;;;;;;;14.60;74.30;99862.94;5091183;28;20021;-63
2023/10/04 07:43:33;;;;;;;2.75;1.23;;;;;;;14.49;73.66;99863.31;5091158;28;20056;-63
2023/10/04 07:46:00;;;;;;;1.38;0.80;;;;;;;14.48;73.69;99859.00;5091130;28;20048;-63
2023/10/04 07:48:25;;;;;;;15.73;2.53;;;;;;;14.53;73.65;99868.41;5091209;28;20400;-63
2023/10/04 07:50:51;;;;;;;8.90;1.10;;;;;;;14.57;74.57;99876.09;5091262;28;20055;-63
2023/10/04 07:53:21;;;;;;;9.05;1.20;;;;;;;14.56;76.04;99871.78;5091175;28;20024;-63
2023/10/04 07:55:49;;;;;;;11.23;1.13;;;;;;;14.52;75.74;99875.38;5090575;28;20068;-63
2023/10/04 07:58:14;;;;;;;1.70;0.93;;;;;;;14.50;75.39;99883.28;5091045;28;20419;-63
2023/10/04 08:00:41;;;;;;;6.68;1.75;;;;;;;14.50;76.16;99872.00;5089129;28;20051;-63
2023/10/04 08:03:07;;;;;;;4.85;1.75;;;;;;;14.40;75.69;99881.03;5087880;28;20025;-64
2023/10/04 08:05:33;;;;;;;4.45;1.35;;;;;;;14.50;76.79;99895.50;5087878;28;20044;-62
2023/10/04 08:08:00;;;;;;;14.73;2.60;;;;;;;14.63;76.45;99893.34;5087680;28;20040;-63
2023/10/04 08:10:29;;;;;;;1.77;1.23;;;;;;;14.81;76.85;99884.03;5087456;28;20058;-64
2023/10/04 08:12:59;;;;;;;6.03;1.42;;;;;;;15.16;76.71;99880.25;5087957;28;20029;-64
2023/10/04 08:15:27;;;;;;;1.85;1.38;;;;;;;15.56;75.83;99886.59;5087643;28;20025;-63
2023/10/04 08:17:54;;;;;;;8.50;1.45;;;;;;;15.89;74.45;99908.06;5087777;28;20071;-63
2023/10/04 08:20:21;;;;;;;5.55;1.77;;;;;;;16.27;73.88;99904.88;5087515;28;20032;-63
2023/10/04 08:22:47;;;;;;;2.67;1.40;;;;;;;16.18;72.64;99909.56;5087479;28;20485;-63
2023/10/04 08:25:18;;;;;;;2.15;0.88;;;;;;;16.09;70.21;99907.31;5087127;28;20029;-63
2023/10/04 08:27:45;;;;;;;0.47;0.47;;;;;;;15.91;69.78;99912.34;5087555;28;20024;-62
2023/10/04 08:30:13;;;;;;;2.85;1.02;;;;;;;15.81;69.08;99916.22;5087366;28;20029;-62
2023/10/04 08:32:43;;;;;;;5.90;1.25;;;;;;;15.85;70.31;99900.34;5087314;28;20024;-63
2023/10/04 08:35:55;;;;;;;3.60;0.85;;;;;;;16.01;68.09;99897.16;5087394;28;20024;-63
2023/10/04 08:38:04;;;;;;;2.75;1.15;;;;;;;16.47;66.17;99925.03;5078807;28;20036;-62
2023/10/04 08:40:30;;;;;;;2.22;0.82;;;;;;;16.39;67.33;99922.72;5086885;28;20025;-63
2023/10/04 08:43:00;;;;;;;2.03;1.65;;;;;;;16.63;68.74;99924.41;5087097;28;20054;-63
2023/10/04 08:45:33;;;;;;;5.80;1.48;;;;;;;16.79;66.49;99929.88;5087003;28;20028;-63
2023/10/04 08:47:59;;;;;;;2.58;1.00;;;;;;;16.82;67.63;99941.06;5087161;28;20021;-64
2023/10/04 08:50:29;;;;;;;2.75;1.40;;;;;;;17.66;68.77;99944.47;5087047;28;20017;-63
2023/10/04 08:53:17;;;;;;;12.25;1.77;;;;;;;18.37;65.00;99936.00;5068872;28;20025;-63
2023/10/04 08:55:51;;;;;;;2.00;0.80;;;;;;;18.53;64.58;99936.09;5076535;28;20037;-63
2023/10/04 08:58:17;;;;;;;3.13;0.95;;;;;;;18.66;60.03;99921.41;5086993;28;20040;-63
2023/10/04 09:00:46;;;;;;;3.08;0.95;;;;;;;18.10;59.64;99929.34;5086717;28;20017;-63
2023/10/04 09:03:13;;;;;;;11.77;1.05;;;;;;;17.82;61.12;99956.91;5086688;28;20052;-63
2023/10/04 09:05:39;;;;;;;3.70;1.58;;;;;;;17.44;60.65;99961.19;5086598;28;20084;-63
2023/10/04 09:08:05;;;;;;;3.83;1.52;;;;;;;17.03;62.46;99954.16;5086733;28;20028;-63
2023/10/04 09:10:33;;;;;;;3.17;1.42;;;;;;;16.80;62.84;99931.56;5086407;28;20028;-64
2023/10/04 09:12:59;;;;;;;6.43;1.80;;;;;;;16.55;62.91;99953.56;5085437;28;20488;-63
2023/10/04 09:15:24;;;;;;;10.77;1.77;;;;;;;16.62;63.98;99962.84;5086668;28;20084;-63
2023/10/04 09:17:57;;;;;;;3.40;1.08;;;;;;;16.72;64.56;99963.34;5086385;28;20055;-63
2023/10/04 09:20:36;;;;;;;15.73;2.38;;;;;;;16.62;63.90;99962.00;5086412;28;20044;-64
2023/10/04 09:23:15;;;;;;;4.40;1.40;;;;;;;17.03;65.13;99972.53;5086210;28;20023;-63
2023/10/04 09:25:40;;;;;;;3.05;0.82;;;;;;;17.26;63.21;99969.88;5086060;28;20020;-63
2023/10/04 09:28:09;;;;;;;9.27;1.42;;;;;;;17.37;62.75;99977.25;5086113;28;20024;-64
2023/10/04 09:30:36;;;;;;;3.00;1.02;;;;;;;17.78;61.83;99971.94;5086238;28;20045;-63
2023/10/04 09:33:07;;;;;;;4.65;1.20;;;;;;;18.18;61.02;99984.16;5086251;28;20099;-64
2023/10/04 09:35:44;;;;;;;12.07;1.75;;;;;;;18.35;58.93;99975.50;5086326;28;20024;-63
2023/10/04 09:38:20;;;;;;;6.57;1.45;;;;;;;18.59;59.12;99988.38;5085930;28;20111;-63
2023/10/04 09:40:50;;;;;;;4.75;1.20;;;;;;;18.37;58.59;99986.75;5085890;28;20426;-63
2023/10/04 09:43:15;;;;;;;8.38;1.63;;;;;;;18.03;58.65;99990.97;5085954;28;20116;-63
2023/10/04 09:45:55;;;;;;;14.80;2.33;;;;;;;17.63;59.13;100006.75;5085603;28;20052;-63
2023/10/04 09:48:21;;;;;;;4.22;1.17;;;;;;;17.57;59.22;100005.28;5085945;28;20031;-64
2023/10/04 09:50:46;;;;;;;9.85;1.15;;;;;;;17.33;57.82;99993.13;5085761;28;20024;-63
2023/10/04 09:53:12;;;;;;;5.97;0.95;;;;;;;17.11;56.80;99981.88;5085781;28;20028;-62
2023/10/04 09:55:38;;;;;;;4.80;1.38;;;;;;;16.56;58.07;100005.91;5085494;28;20045;-63
2023/10/04 09:58:05;;;;;;;2.95;0.73;;;;;;;16.23;57.87;100001.03;5085736;28;20020;-63
2023/10/04 10:00:31;;;;;;;3.40;0.98;;;;;;;15.98;57.96;100012.47;5085756;28;20055;-62
2023/10/04 10:03:00;;;;;;;5.63;1.15;;;;;;;15.93;59.07;100011.75;5085682;28;20021;-62
2023/10/04 10:05:31;;;;;;;11.05;1.67;;;;;;;16.17;57.55;100011.75;5085625;28;20024;-63
2023/10/04 10:08:06;;;;;;;2.67;0.93;;;;;;;16.42;58.88;100014.28;5085540;28;20114;-63
2023/10/04 10:10:37;;;;;;;3.28;1.35;;;;;;;17.33;58.64;100018.53;5085284;28;20028;-64
2023/10/04 10:13:05;;;;;;;1.42;0.85;;;;;;;18.04;55.18;100029.44;5085546;28;20116;-63
2023/10/04 10:15:31;;;;;;;2.72;1.00;;;;;;;17.87;55.38;100019.69;5085442;28;20052;-63
2023/10/04 10:17:57;;;;;;;2.58;0.77;;;;;;;18.50;54.65;100013.31;5085334;28;20025;-63
2023/10/04 10:20:23;;;;;;;2.92;1.23;;;;;;;19.31;54.04;100006.72;5085396;28;20058;-63
2023/10/04 10:22:58;;;;;;;3.15;1.48;;;;;;;19.55;52.41;100019.53;5085351;28;20028;-63
2023/10/04 10:25:27;;;;;;;5.55;1.15;;;;;;;19.07;52.09;100038.59;5084768;28;20139;-63
2023/10/04 10:27:56;;;;;;;2.53;0.80;;;;;;;19.04;51.31;100004.56;5085035;28;20051;-63
2023/10/04 10:30:23;;;;;;;8.07;1.52;;;;;;;19.30;51.48;100027.88;5085410;28;20038;-65
2023/10/04 10:32:55;;;;;;;1.52;0.70;;;;;;;19.41;50.23;100040.50;5085221;28;20091;-63
2023/10/04 10:35:48;;;;;;;1.52;0.77;;;;;;;19.43;50.71;100035.97;5085128;28;20024;-63
2023/10/04 10:38:45;;;;;;;10.48;1.30;;;;;;;19.61;49.90;100049.13;5085040;28;20020;-63
2023/10/04 10:41:29;;;;;;;0.95;0.55;;;;;;;19.99;48.27;100051.50;5050681;28;20040;-63
2023/10/04 10:44:19;;;;;;;5.85;1.10;;;;;;;19.86;47.57;100040.78;5085230;28;20472;-63
2023/10/04 10:47:07;;;;;;;2.33;0.95;;;;;;;19.92;48.14;100048.34;5084962;28;20082;-63
2023/10/04 10:49:52;;;;;;;1.95;0.82;;;;;;;20.40;47.46;100042.28;5085183;28;20063;-64
2023/10/04 10:52:34;;;;;;;2.40;1.10;;;;;;;20.71;47.06;100063.47;5085240;28;20024;-63
2023/10/04 10:55:03;;;;;;;1.83;0.77;;;;;;;21.11;44.58;100047.16;5084673;28;20045;-63
2023/10/04 10:57:29;;;;;;;2.55;1.20;;;;;;;20.64;45.14;100043.66;5085002;28;20411;-63
2023/10/04 10:59:56;;;;;;;2.00;0.73;;;;;;;19.61;45.61;100057.88;5085069;28;20021;-64
2023/10/04 11:02:23;;;;;;;3.50;1.27;;;;;;;19.65;47.23;100077.00;5085003;28;20051;-64
2023/10/04 11:04:50;;;;;;;2.70;1.15;;;;;;;20.32;45.90;100057.69;5084869;28;20036;-64
2023/10/04 11:07:17;;;;;;;2.63;1.70;;;;;;;20.18;46.66;100082.16;5084639;28;20043;-64
2023/10/04 11:09:50;;;;;;;3.53;0.73;;;;;;;20.84;45.90;100070.66;5084731;28;20040;-64
2023/10/04 11:12:18;;;;;;;1.55;0.82;;;;;;;21.58;45.23;100054.13;5084957;28;20046;-64
2023/10/04 11:14:44;;;;;;;2.42;1.08;;;;;;;21.61;43.20;100059.22;5084806;28;20024;-64
2023/10/04 11:17:10;;;;;;;2.78;1.30;;;;;;;20.54;44.08;100070.50;5084812;28;20047;-64
2023/10/04 11:19:36;;;;;;;1.58;0.90;;;;;;;19.30;45.46;100078.72;5085061;28;20020;-64
2023/10/04 11:22:03;;;;;;;2.35;1.10;;;;;;;18.27;47.77;100062.56;5084803;28;20331;-64
2023/10/04 11:24:29;;;;;;;6.60;1.17;;;;;;;17.57;49.93;100058.59;5084621;28;20070;-62
2023/10/04 11:26:56;;;;;;;1.90;0.82;;;;;;;17.14;50.45;100070.94;5084698;28;20028;-63
2023/10/04 11:29:30;;;;;;;6.00;1.17;;;;;;;16.93;50.52;100071.69;5084868;28;20024;-63
2023/10/04 11:31:56;;;;;;;8.75;1.15;;;;;;;16.72;51.21;100081.28;5084635;28;20020;-63
2023/10/04 11:34:22;;;;;;;1.48;0.93;;;;;;;16.51;51.88;100062.88;5084696;28;20020;-63
2023/10/04 11:36:48;;;;;;;7.75;1.38;;;;;;;16.42;52.76;100089.44;5086502;28;20024;-63
2023/10/04 11:39:18;;;;;;;9.07;1.33;;;;;;;16.38;53.09;100083.44;5088315;28;20119;-63